createdAt,value
2019-06-15T00:01:59.830Z,17.80
2019-06-15T00:04:26.311Z,17.80
2019-06-15T00:06:52.692Z,17.70
2019-06-15T00:09:19.054Z,17.70
2019-06-15T00:11:45.344Z,17.70
2019-06-15T00:14:11.805Z,17.70
2019-06-15T00:16:38.211Z,17.60
2019-06-15T00:19:04.657Z,17.60
2019-06-15T00:21:41.153Z,17.60
2019-06-15T00:24:07.549Z,17.50
2019-06-15T00:26:35.291Z,17.40
2019-06-15T00:29:01.685Z,17.40
2019-06-15T00:31:28.489Z,17.30
2019-06-15T00:33:55.038Z,17.30
2019-06-15T00:36:21.647Z,17.20
2019-06-15T00:38:48.097Z,17.20
2019-06-15T00:41:14.498Z,17.20
2019-06-15T00:43:40.875Z,17.20
2019-06-15T00:46:07.415Z,17.10
2019-06-15T00:48:33.941Z,17.10
2019-06-15T00:51:00.171Z,17.10
2019-06-15T00:53:26.577Z,17.00
2019-06-15T00:55:53.021Z,17.00
2019-06-15T00:58:19.465Z,17.00
2019-06-15T01:00:46.084Z,17.00
2019-06-15T01:03:12.441Z,16.90
2019-06-15T01:05:38.829Z,16.90
2019-06-15T01:08:10.369Z,16.90
2019-06-15T01:10:46.928Z,16.80
2019-06-15T01:13:38.243Z,16.80
2019-06-15T01:16:04.739Z,16.80
2019-06-15T01:18:31.215Z,16.80
2019-06-15T01:20:57.681Z,16.70
2019-06-15T01:23:24.273Z,16.60
2019-06-15T01:25:55.833Z,16.60
2019-06-15T01:28:22.209Z,16.60
2019-06-15T01:30:48.678Z,16.60
2019-06-15T01:33:15.298Z,16.50
2019-06-15T01:35:41.851Z,16.50
2019-06-15T01:38:08.318Z,16.40
2019-06-15T01:40:35.641Z,16.40
2019-06-15T01:43:07.132Z,16.40
2019-06-15T01:45:33.615Z,16.40
2019-06-15T01:47:59.971Z,16.40
2019-06-15T01:50:26.531Z,16.40
2019-06-15T01:52:52.869Z,16.40
2019-06-15T01:55:29.399Z,16.30
2019-06-15T01:57:56.205Z,16.30
2019-06-15T02:00:28.471Z,16.30
2019-06-15T02:02:59.957Z,16.30
2019-06-15T02:05:26.442Z,16.20
2019-06-15T02:07:52.820Z,16.20
2019-06-15T02:10:27.615Z,16.20
2019-06-15T02:12:53.929Z,16.20
2019-06-15T02:15:20.474Z,16.20
2019-06-15T02:17:56.953Z,16.20
2019-06-15T02:20:23.580Z,16.20
2019-06-15T02:22:50.058Z,16.20
2019-06-15T02:25:34.871Z,16.20
2019-06-15T02:27:51.630Z,16.20
2019-06-15T02:30:26.233Z,16.10
2019-06-15T02:32:53.970Z,16.10
2019-06-15T02:35:20.473Z,16.10
2019-06-15T02:37:47.010Z,16.10
2019-06-15T02:40:13.565Z,16.10
2019-06-15T02:42:40.084Z,16.10
2019-06-15T02:45:06.680Z,16.10
2019-06-15T02:47:33.150Z,16.10
2019-06-15T02:49:59.718Z,16.20
2019-06-15T02:52:26.438Z,16.20
2019-06-15T02:54:57.823Z,16.10
2019-06-15T02:57:34.556Z,16.10
2019-06-15T03:00:01.148Z,16.20
2019-06-15T03:02:27.643Z,16.20
2019-06-15T03:04:54.043Z,16.20
2019-06-15T03:07:20.403Z,16.20
2019-06-15T03:09:46.896Z,16.20
2019-06-15T03:12:13.394Z,16.20
2019-06-15T03:14:39.907Z,16.20
2019-06-15T03:17:06.176Z,16.20
2019-06-15T03:19:32.455Z,16.20
2019-06-15T03:21:58.941Z,16.30
2019-06-15T03:24:25.216Z,16.30
2019-06-15T03:26:51.787Z,16.30
2019-06-15T03:29:18.379Z,16.40
2019-06-15T03:31:44.861Z,16.40
2019-06-15T03:34:21.415Z,16.40
2019-06-15T03:36:47.904Z,16.40
2019-06-15T03:39:14.406Z,16.50
2019-06-15T03:41:40.868Z,16.50
2019-06-15T03:44:22.323Z,16.50
2019-06-15T03:46:48.686Z,16.60
2019-06-15T03:49:15.345Z,16.60
2019-06-15T03:51:46.609Z,16.70
2019-06-15T03:54:13.053Z,16.70
2019-06-15T03:56:39.657Z,16.80
2019-06-15T03:59:08.119Z,16.80
2019-06-15T04:01:41.185Z,16.90
2019-06-15T04:04:08.158Z,17.10
2019-06-15T04:06:34.613Z,17.10
2019-06-15T04:09:01.097Z,17.20
2019-06-15T04:11:27.513Z,17.40
2019-06-15T04:13:53.783Z,17.50
2019-06-15T04:16:25.375Z,17.40
2019-06-15T04:18:51.940Z,17.50
2019-06-15T04:21:20.403Z,17.50
2019-06-15T04:23:46.917Z,17.70
2019-06-15T04:26:13.360Z,18.00
2019-06-15T04:28:39.813Z,18.10
2019-06-15T04:31:07.632Z,18.10
2019-06-15T04:33:34.192Z,18.10
2019-06-15T04:36:00.787Z,18.20
2019-06-15T04:38:27.376Z,18.30
2019-06-15T04:40:53.887Z,18.40
2019-06-15T04:43:20.389Z,18.40
2019-06-15T04:45:51.919Z,18.30
2019-06-15T04:48:18.412Z,18.30
2019-06-15T04:50:44.855Z,18.20
2019-06-15T04:53:14.185Z,18.20
2019-06-15T04:55:39.942Z,18.10
2019-06-15T04:58:06.417Z,18.10
2019-06-15T05:00:32.953Z,18.10
2019-06-15T05:02:59.487Z,18.10
2019-06-15T05:05:26.042Z,18.20
2019-06-15T05:07:52.594Z,18.30
2019-06-15T05:10:19.095Z,18.40
2019-06-15T05:12:50.381Z,18.50
2019-06-15T05:15:16.989Z,18.60
2019-06-15T05:17:46.143Z,18.80
2019-06-15T05:20:11.878Z,19.00
2019-06-15T05:22:38.252Z,19.10
2019-06-15T05:25:05.279Z,19.20
2019-06-15T05:27:31.560Z,19.30
2019-06-15T05:29:57.938Z,19.40
2019-06-15T05:32:24.610Z,19.40
2019-06-15T05:35:06.680Z,19.50
2019-06-15T05:37:33.045Z,19.50
2019-06-15T05:40:05.124Z,19.50
2019-06-15T05:42:31.579Z,19.60
2019-06-15T05:44:58.053Z,19.70
2019-06-15T05:47:24.589Z,19.70
2019-06-15T05:49:50.951Z,19.80
2019-06-15T05:52:17.324Z,19.80
2019-06-15T05:54:45.106Z,19.90
2019-06-15T05:57:21.323Z,20.00
2019-06-15T05:59:39.769Z,20.10
2019-06-15T06:02:11.326Z,20.20
2019-06-15T06:04:37.821Z,20.10
2019-06-15T06:07:04.282Z,20.10
2019-06-15T06:09:30.754Z,20.10
2019-06-15T06:11:57.063Z,20.30
2019-06-15T06:14:38.433Z,20.40
2019-06-15T06:17:09.905Z,20.50
2019-06-15T06:19:36.175Z,20.70
2019-06-15T06:22:12.551Z,20.60
2019-06-15T06:24:38.935Z,20.60
2019-06-15T06:27:05.527Z,20.50
2019-06-15T06:29:32.020Z,20.50
2019-06-15T06:31:58.401Z,20.40
2019-06-15T06:34:24.897Z,20.50
2019-06-15T06:36:51.259Z,20.60
2019-06-15T06:39:17.730Z,20.80
2019-06-15T06:41:44.111Z,20.90
2019-06-15T06:44:15.706Z,21.00
2019-06-15T06:46:42.301Z,21.20
2019-06-15T06:49:08.662Z,21.20
2019-06-15T06:51:34.964Z,21.20
2019-06-15T06:54:06.400Z,21.20
2019-06-15T06:56:34.176Z,21.30
2019-06-15T06:59:00.567Z,21.40
2019-06-15T07:01:26.964Z,21.90
2019-06-15T07:03:53.752Z,23.10
2019-06-15T07:06:20.004Z,24.50
2019-06-15T07:08:56.850Z,25.40
2019-06-15T07:11:23.228Z,26.00
2019-06-15T07:13:49.627Z,26.60
2019-06-15T07:16:17.799Z,27.10
2019-06-15T07:18:44.439Z,27.30
2019-06-15T07:21:25.842Z,27.40
2019-06-15T07:23:57.531Z,27.50
2019-06-15T07:26:24.004Z,27.50
2019-06-15T07:28:50.305Z,28.00
2019-06-15T07:31:16.756Z,28.30
2019-06-15T07:33:43.290Z,28.70
2019-06-15T07:36:09.726Z,29.30
2019-06-15T07:38:36.304Z,29.70
2019-06-15T07:41:02.777Z,29.70
2019-06-15T07:43:29.184Z,29.20
2019-06-15T07:45:55.648Z,29.40
2019-06-15T07:48:27.375Z,29.70
2019-06-15T07:51:03.757Z,29.50
2019-06-15T07:53:35.303Z,29.20
2019-06-15T07:56:01.772Z,29.40
2019-06-15T07:58:28.244Z,28.90
2019-06-15T08:00:54.609Z,29.90
2019-06-15T08:03:20.880Z,30.40
2019-06-15T08:05:47.413Z,30.60
2019-06-15T08:08:13.862Z,30.90
2019-06-15T08:10:40.269Z,31.10
2019-06-15T08:13:06.891Z,30.90
2019-06-15T08:15:33.309Z,31.10
2019-06-15T08:17:59.782Z,31.30
2019-06-15T08:20:29.974Z,30.80
2019-06-15T08:22:56.543Z,31.40
2019-06-15T08:25:28.030Z,31.70
2019-06-15T08:27:59.545Z,31.10
2019-06-15T08:30:29.625Z,31.40
2019-06-15T08:32:56.121Z,31.30
2019-06-15T08:35:27.437Z,31.60
2019-06-15T08:37:54.113Z,31.80
2019-06-15T08:40:20.883Z,31.40
2019-06-15T08:42:47.349Z,30.70
2019-06-15T08:45:13.893Z,30.40
2019-06-15T08:47:40.351Z,30.80
2019-06-15T08:50:06.941Z,31.50
2019-06-15T08:52:33.409Z,30.80
2019-06-15T08:54:59.921Z,31.20
2019-06-15T08:57:26.476Z,31.90
2019-06-15T08:59:57.997Z,32.40
2019-06-15T09:02:24.624Z,32.10
2019-06-15T09:04:51.373Z,32.20
2019-06-15T09:07:17.745Z,31.90
2019-06-15T09:09:44.178Z,31.60
2019-06-15T09:12:10.641Z,31.70
2019-06-15T09:14:42.343Z,31.90
2019-06-15T09:17:08.841Z,31.90
2019-06-15T09:19:35.370Z,31.30
2019-06-15T09:22:02.005Z,30.60
2019-06-15T09:24:28.507Z,31.00
2019-06-15T09:26:55.033Z,31.40
2019-06-15T09:29:21.616Z,31.70
2019-06-15T09:31:47.990Z,31.80
2019-06-15T09:34:18.885Z,32.20
2019-06-15T09:36:42.911Z,32.70
2019-06-15T09:39:09.313Z,33.10
2019-06-15T09:41:35.947Z,33.00
2019-06-15T09:44:02.489Z,32.70
2019-06-15T09:46:29.024Z,32.90
2019-06-15T09:48:55.503Z,32.60
2019-06-15T09:51:21.993Z,32.90
2019-06-15T09:53:48.477Z,32.80
2019-06-15T09:56:20.127Z,32.60
2019-06-15T09:58:46.416Z,32.40
2019-06-15T10:01:12.794Z,32.40
2019-06-15T10:03:39.304Z,32.00
2019-06-15T10:06:05.847Z,32.20
2019-06-15T10:08:37.377Z,32.60
2019-06-15T10:11:03.862Z,32.50
2019-06-15T10:13:31.542Z,32.50
2019-06-15T10:15:58.165Z,32.60
2019-06-15T10:18:24.746Z,32.70
2019-06-15T10:20:51.132Z,32.50
2019-06-15T10:23:17.409Z,32.50
2019-06-15T10:25:50.472Z,32.40
2019-06-15T10:28:16.995Z,32.40
2019-06-15T10:30:43.392Z,32.50
2019-06-15T10:33:09.922Z,32.00
2019-06-15T10:35:40.298Z,32.20
2019-06-15T10:38:11.780Z,32.10
2019-06-15T10:40:38.304Z,32.00
2019-06-15T10:43:04.672Z,32.20
2019-06-15T10:45:33.054Z,32.60
2019-06-15T10:47:59.714Z,32.90
2019-06-15T10:50:26.136Z,33.40
2019-06-15T10:52:52.653Z,33.20
2019-06-15T10:55:19.135Z,33.10
2019-06-15T10:57:45.570Z,33.60
2019-06-15T11:00:17.573Z,33.40
2019-06-15T11:02:43.973Z,33.10
2019-06-15T11:05:18.455Z,32.00
2019-06-15T11:07:44.933Z,32.10
2019-06-15T11:10:14.501Z,32.40
2019-06-15T11:12:46.263Z,32.60
2019-06-15T11:15:09.513Z,32.30
2019-06-15T11:17:37.996Z,31.80
2019-06-15T11:20:04.749Z,32.00
2019-06-15T11:22:31.113Z,31.20
2019-06-15T11:24:57.606Z,31.60
2019-06-15T11:27:29.029Z,32.00
2019-06-15T11:29:55.303Z,32.50
2019-06-15T11:32:21.656Z,32.70
2019-06-15T11:34:48.135Z,32.40
2019-06-15T11:37:14.618Z,32.30
2019-06-15T11:39:41.956Z,32.50
2019-06-15T11:42:08.349Z,32.30
2019-06-15T11:44:34.771Z,32.70
2019-06-15T11:47:01.352Z,32.70
2019-06-15T11:49:27.950Z,31.50
2019-06-15T11:51:54.357Z,31.40
2019-06-15T11:54:20.898Z,31.90
2019-06-15T11:56:47.398Z,32.20
2019-06-15T11:59:13.905Z,32.20
2019-06-15T12:01:42.306Z,31.90
2019-06-15T12:04:08.714Z,32.00
2019-06-15T12:06:35.269Z,32.40
2019-06-15T12:09:01.865Z,32.70
2019-06-15T12:11:28.452Z,32.80
2019-06-15T12:13:54.832Z,32.70
2019-06-15T12:16:21.283Z,32.40
2019-06-15T12:18:47.756Z,32.70
2019-06-15T12:21:14.228Z,33.10
2019-06-15T12:23:40.494Z,32.60
2019-06-15T12:26:07.022Z,32.70
2019-06-15T12:28:33.676Z,33.00
2019-06-15T12:31:00.408Z,32.40
2019-06-15T12:33:27.009Z,32.40
2019-06-15T12:35:53.374Z,31.70
2019-06-15T12:38:19.771Z,32.00
2019-06-15T12:40:46.356Z,31.90
2019-06-15T12:43:12.806Z,32.50
2019-06-15T12:45:39.715Z,32.40
2019-06-15T12:48:06.118Z,32.80
2019-06-15T12:50:32.609Z,32.10
2019-06-15T12:52:59.248Z,31.10
2019-06-15T12:55:25.836Z,31.30
2019-06-15T12:57:53.095Z,31.30
2019-06-15T13:00:23.159Z,32.20
2019-06-15T13:02:49.675Z,32.70
2019-06-15T13:05:16.082Z,32.30
2019-06-15T13:07:42.588Z,31.70
2019-06-15T13:10:09.253Z,32.00
2019-06-15T13:12:35.615Z,32.70
2019-06-15T13:15:03.345Z,32.70
2019-06-15T13:17:29.781Z,32.90
2019-06-15T13:19:56.279Z,32.60
2019-06-15T13:22:22.750Z,32.70
2019-06-15T13:24:49.138Z,33.10
2019-06-15T13:27:15.637Z,33.20
2019-06-15T13:29:42.004Z,32.80
2019-06-15T13:32:08.460Z,33.30
2019-06-15T13:34:34.840Z,33.60
2019-06-15T13:37:01.450Z,33.80
2019-06-15T13:39:27.974Z,33.80
2019-06-15T13:41:54.449Z,33.20
2019-06-15T13:44:20.889Z,32.90
2019-06-15T13:46:47.135Z,32.00
2019-06-15T13:49:13.600Z,31.20
2019-06-15T13:51:40.012Z,31.00
2019-06-15T13:54:06.526Z,31.50
2019-06-15T13:56:33.083Z,32.00
2019-06-15T13:58:59.647Z,31.80
2019-06-15T14:01:34.095Z,31.50
2019-06-15T14:03:54.357Z,31.70
2019-06-15T14:06:20.775Z,32.00
2019-06-15T14:08:47.211Z,31.90
2019-06-15T14:11:13.772Z,31.90
2019-06-15T14:13:40.268Z,31.80
2019-06-15T14:16:06.754Z,31.90
2019-06-15T14:18:33.352Z,31.70
2019-06-15T14:20:59.913Z,31.20
2019-06-15T14:23:26.299Z,30.40
2019-06-15T14:25:52.738Z,30.40
2019-06-15T14:28:19.149Z,31.10
2019-06-15T14:30:45.830Z,31.40
2019-06-15T14:33:12.323Z,31.40
2019-06-15T14:35:38.684Z,30.90
2019-06-15T14:38:05.092Z,30.60
2019-06-15T14:40:31.448Z,31.00
2019-06-15T14:42:57.703Z,31.10
2019-06-15T14:45:24.073Z,30.90
2019-06-15T14:47:50.549Z,31.30
2019-06-15T14:50:17.029Z,30.80
2019-06-15T14:52:43.414Z,30.90
2019-06-15T14:55:10.079Z,30.60
2019-06-15T14:57:36.444Z,30.40
2019-06-15T15:00:08.354Z,30.10
2019-06-15T15:02:33.234Z,30.10
2019-06-15T15:04:59.638Z,30.30
2019-06-15T15:07:26.459Z,30.70
2019-06-15T15:09:52.913Z,30.70
2019-06-15T15:12:19.393Z,30.50
2019-06-15T15:14:46.980Z,29.50
2019-06-15T15:17:13.544Z,28.90
2019-06-15T15:19:40.014Z,29.10
2019-06-15T15:22:06.519Z,29.60
2019-06-15T15:24:33.188Z,29.70
2019-06-15T15:26:59.682Z,29.90
2019-06-15T15:29:27.321Z,30.10
2019-06-15T15:31:53.811Z,30.20
2019-06-15T15:34:20.376Z,30.40
2019-06-15T15:36:46.804Z,30.50
2019-06-15T15:39:13.223Z,30.50
2019-06-15T15:41:39.727Z,30.20
2019-06-15T15:44:06.163Z,29.80
2019-06-15T15:46:32.732Z,29.90
2019-06-15T15:48:59.101Z,30.00
2019-06-15T15:51:26.166Z,29.40
2019-06-15T15:53:52.905Z,29.30
2019-06-15T15:56:19.381Z,29.10
2019-06-15T15:58:47.139Z,29.00
2019-06-15T16:01:13.876Z,29.10
2019-06-15T16:03:40.258Z,29.10
2019-06-15T16:06:07.919Z,29.00
2019-06-15T16:08:34.521Z,28.90
2019-06-15T16:11:01.161Z,29.00
2019-06-15T16:13:27.808Z,28.80
2019-06-15T16:15:54.189Z,28.80
2019-06-15T16:18:20.493Z,28.80
2019-06-15T16:20:47.228Z,28.60
2019-06-15T16:23:15.965Z,28.30
2019-06-15T16:25:41.989Z,28.20
2019-06-15T16:28:08.420Z,28.30
2019-06-15T16:30:59.758Z,28.50
2019-06-15T16:33:04.293Z,28.40
2019-06-15T16:35:31.521Z,28.40
2019-06-15T16:37:57.999Z,28.50
2019-06-15T16:40:38.189Z,28.80
2019-06-15T16:43:07.067Z,28.70
2019-06-15T16:45:33.594Z,28.60
2019-06-15T16:48:00.105Z,28.60
2019-06-15T16:50:26.648Z,28.40
2019-06-15T16:52:53.089Z,28.20
2019-06-15T16:55:19.420Z,28.10
2019-06-15T16:57:46.616Z,28.10
2019-06-15T17:00:17.677Z,28.00
2019-06-15T17:02:44.035Z,27.60
2019-06-15T17:05:10.664Z,27.40
2019-06-15T17:07:36.941Z,27.20
2019-06-15T17:10:06.509Z,27.10
2019-06-15T17:12:32.961Z,26.90
2019-06-15T17:14:59.389Z,26.50
2019-06-15T17:17:26.597Z,26.40
2019-06-15T17:19:53.179Z,26.40
2019-06-15T17:22:21.386Z,26.50
2019-06-15T17:24:48.042Z,26.40
2019-06-15T17:27:16.908Z,26.40
2019-06-15T17:29:42.788Z,26.30
2019-06-15T17:32:09.183Z,26.10
2019-06-15T17:34:36.384Z,26.10
2019-06-15T17:37:03.052Z,26.00
2019-06-15T17:39:29.890Z,25.90
2019-06-15T17:41:56.470Z,25.80
2019-06-15T17:44:22.923Z,25.80
2019-06-15T17:46:49.374Z,25.80
2019-06-15T17:49:18.017Z,25.70
2019-06-15T17:51:46.220Z,25.50
2019-06-15T17:54:12.467Z,25.40
2019-06-15T17:56:38.964Z,25.40
2019-06-15T17:59:06.486Z,25.40
2019-06-15T18:01:33.209Z,25.30
2019-06-15T18:03:59.870Z,25.30
2019-06-15T18:06:26.789Z,25.20
2019-06-15T18:08:53.433Z,25.20
2019-06-15T18:11:19.903Z,25.10
2019-06-15T18:13:47.212Z,25.00
2019-06-15T18:16:13.927Z,25.00
2019-06-15T18:18:42.536Z,25.00
2019-06-15T18:21:09.384Z,24.90
2019-06-15T18:23:36.883Z,24.90
2019-06-15T18:26:03.582Z,24.80
2019-06-15T18:28:30.321Z,24.70
2019-06-15T18:30:56.865Z,24.70
2019-06-15T18:33:23.330Z,24.60
2019-06-15T18:35:49.821Z,24.70
2019-06-15T18:38:16.459Z,24.70
2019-06-15T18:40:42.804Z,24.70
2019-06-15T18:43:09.338Z,24.70
2019-06-15T18:45:36.127Z,24.60
2019-06-15T18:48:02.965Z,24.60
2019-06-15T18:50:37.962Z,24.50
2019-06-15T18:53:06.922Z,24.30
2019-06-15T18:55:33.307Z,24.30
2019-06-15T18:57:59.675Z,24.20
2019-06-15T19:00:26.266Z,24.10
2019-06-15T19:02:52.631Z,24.10
2019-06-15T19:05:19.193Z,24.00
2019-06-15T19:07:46.675Z,23.90
2019-06-15T19:10:30.941Z,23.90
2019-06-15T19:12:57.617Z,23.80
2019-06-15T19:15:24.225Z,23.80
2019-06-15T19:17:50.812Z,23.80
2019-06-15T19:20:17.449Z,23.70
2019-06-15T19:22:43.747Z,23.60
2019-06-15T19:25:10.305Z,23.50
2019-06-15T19:27:36.800Z,23.40
2019-06-15T19:30:06.547Z,23.40
2019-06-15T19:32:33.127Z,23.20
2019-06-15T19:34:59.500Z,23.10
2019-06-15T19:37:26.138Z,23.10
2019-06-15T19:39:56.372Z,23.00
2019-06-15T19:42:20.974Z,23.00
2019-06-15T19:44:47.503Z,22.90
2019-06-15T19:47:16.211Z,22.80
2019-06-15T19:49:42.208Z,22.80
2019-06-15T19:52:08.600Z,22.70
2019-06-15T19:54:36.556Z,22.60
2019-06-15T19:57:03.211Z,22.50
2019-06-15T19:59:29.719Z,22.40
2019-06-15T20:01:56.121Z,22.40
2019-06-15T20:04:22.638Z,22.40
2019-06-15T20:06:49.001Z,22.30
2019-06-15T20:09:15.361Z,22.30
2019-06-15T20:11:41.727Z,22.20
2019-06-15T20:14:08.200Z,22.10
2019-06-15T20:16:36.108Z,22.00
2019-06-15T20:19:02.664Z,22.00
2019-06-15T20:21:30.652Z,21.90
2019-06-15T20:23:57.315Z,21.80
2019-06-15T20:26:23.788Z,21.80
2019-06-15T20:28:50.277Z,21.70
2019-06-15T20:31:16.913Z,21.70
2019-06-15T20:33:43.341Z,21.70
2019-06-15T20:36:09.816Z,21.70
2019-06-15T20:38:36.552Z,21.60
2019-06-15T20:41:03.128Z,21.50
2019-06-15T20:43:29.763Z,21.50
2019-06-15T20:45:56.331Z,21.50
2019-06-15T20:48:22.682Z,21.40
2019-06-15T20:50:49.062Z,21.30
2019-06-15T20:53:17.037Z,21.20
2019-06-15T20:55:46.432Z,21.20
2019-06-15T20:58:11.684Z,21.10
2019-06-15T21:00:38.188Z,21.10
2019-06-15T21:03:06.776Z,21.00
2019-06-15T21:05:38.022Z,20.90
2019-06-15T21:08:01.324Z,20.90
2019-06-15T21:10:27.914Z,20.80
2019-06-15T21:12:54.360Z,20.80
2019-06-15T21:15:24.541Z,20.80
2019-06-15T21:17:50.938Z,20.80
2019-06-15T21:20:17.420Z,20.70
2019-06-15T21:22:46.354Z,20.60
2019-06-15T21:25:12.607Z,20.60
2019-06-15T21:27:39.193Z,20.50
2019-06-15T21:30:07.221Z,20.40
2019-06-15T21:32:33.645Z,20.40
2019-06-15T21:34:59.880Z,20.30
2019-06-15T21:37:26.260Z,20.30
2019-06-15T21:39:52.750Z,20.10
2019-06-15T21:42:19.297Z,20.10
2019-06-15T21:44:46.959Z,20.00
2019-06-15T21:47:13.619Z,20.00
2019-06-15T21:49:40.133Z,19.90
2019-06-15T21:52:07.232Z,19.90
2019-06-15T21:54:36.069Z,19.90
2019-06-15T21:57:02.239Z,19.90
2019-06-15T21:59:28.489Z,19.80
2019-06-15T22:01:55.003Z,19.70
2019-06-15T22:04:21.360Z,19.70
2019-06-15T22:06:48.920Z,19.60
2019-06-15T22:09:20.507Z,19.60
2019-06-15T22:11:43.770Z,19.60
2019-06-15T22:14:10.469Z,19.50
2019-06-15T22:16:36.963Z,19.50
2019-06-15T22:19:05.958Z,19.40
2019-06-15T22:21:31.835Z,19.30
2019-06-15T22:23:58.331Z,19.30
2019-06-15T22:26:26.677Z,19.30
2019-06-15T22:28:53.994Z,19.30
2019-06-15T22:31:21.205Z,19.30
2019-06-15T22:33:47.705Z,19.30
2019-06-15T22:36:24.021Z,19.20
2019-06-15T22:38:42.512Z,19.10
2019-06-15T22:41:09.001Z,19.00
2019-06-15T22:43:36.368Z,18.90
2019-06-15T22:46:03.255Z,19.00
2019-06-15T22:48:29.650Z,18.90
2019-06-15T22:50:56.293Z,18.90
2019-06-15T22:53:22.617Z,18.90
2019-06-15T22:55:48.991Z,18.90
2019-06-15T22:58:17.837Z,18.90
2019-06-15T23:00:46.734Z,18.90
2019-06-15T23:03:12.001Z,18.80
2019-06-15T23:05:38.496Z,18.80
2019-06-15T23:08:06.981Z,18.70
2019-06-15T23:10:33.083Z,18.60
2019-06-15T23:12:59.455Z,18.50
2019-06-15T23:15:26.388Z,18.40
2019-06-15T23:17:53.009Z,18.40
2019-06-15T23:20:19.253Z,18.40
2019-06-15T23:22:46.779Z,18.30
2019-06-15T23:25:13.323Z,18.20
2019-06-15T23:27:39.720Z,18.20
2019-06-15T23:30:10.284Z,18.10
2019-06-15T23:32:36.630Z,18.20
2019-06-15T23:35:09.364Z,18.20
2019-06-15T23:37:37.515Z,18.20
2019-06-15T23:40:20.792Z,18.20
2019-06-15T23:42:51.648Z,18.10
2019-06-15T23:45:18.811Z,18.00
2019-06-15T23:47:46.693Z,18.00
2019-06-15T23:50:13.220Z,18.00
2019-06-15T23:52:39.750Z,18.00
2019-06-15T23:55:06.722Z,18.00
2019-06-15T23:57:33.322Z,18.00
2019-06-15T23:59:59.809Z,18.00
